createdAt,value
2023-05-06T00:01:19.678Z,15.07
2023-05-06T00:03:46.943Z,15.48
2023-05-06T00:06:14.052Z,14.55
2023-05-06T00:08:40.908Z,14.85
2023-05-06T00:11:07.904Z,13.77
2023-05-06T00:13:34.945Z,13.98
2023-05-06T00:16:01.890Z,14.43
2023-05-06T00:18:28.724Z,14.13
2023-05-06T00:20:56.504Z,13.73
2023-05-06T00:23:23.374Z,15.77
2023-05-06T00:25:50.405Z,16.73
2023-05-06T00:28:17.447Z,15.32
2023-05-06T00:30:44.392Z,16.48
2023-05-06T00:33:11.990Z,16.92
2023-05-06T00:35:40.355Z,16.27
2023-05-06T00:38:12.869Z,16.45
2023-05-06T00:43:07.242Z,15.98
2023-05-06T00:45:34.420Z,17.20
2023-05-06T00:48:01.845Z,17.08
2023-05-06T00:50:29.922Z,18.65
2023-05-06T00:52:57.707Z,19.73
2023-05-06T00:55:25.244Z,19.25
2023-05-06T00:57:55.365Z,19.92
2023-05-06T01:00:22.295Z,19.15
2023-05-06T01:02:49.451Z,18.05
2023-05-06T01:05:18.810Z,17.98
2023-05-06T01:07:51.364Z,18.15
2023-05-06T01:10:28.476Z,19.05
2023-05-06T01:13:06.531Z,17.73
2023-05-06T01:15:37.321Z,17.40
2023-05-06T01:18:09.533Z,19.52
2023-05-06T01:20:38.479Z,20.30
2023-05-06T01:23:13.121Z,20.30
2023-05-06T01:25:40.737Z,19.40
2023-05-06T01:28:10.580Z,22.17
2023-05-06T01:30:50.289Z,20.83
2023-05-06T01:33:35.782Z,19.35
2023-05-06T01:36:17.102Z,20.08
2023-05-06T01:39:00.572Z,20.30
2023-05-06T01:41:28.273Z,20.38
2023-05-06T01:43:55.498Z,22.02
2023-05-06T01:46:23.666Z,20.85
2023-05-06T01:48:54.184Z,20.75
2023-05-06T01:51:23.372Z,20.00
2023-05-06T01:53:50.245Z,22.35
2023-05-06T01:56:17.552Z,21.75
2023-05-06T01:58:44.339Z,21.90
2023-05-06T02:01:11.413Z,22.20
2023-05-06T02:03:40.190Z,20.20
2023-05-06T02:06:07.731Z,19.95
2023-05-06T02:08:40.268Z,20.17
2023-05-06T02:11:09.693Z,18.23
2023-05-06T02:13:36.596Z,21.38
2023-05-06T02:16:04.398Z,20.00
2023-05-06T02:18:32.392Z,21.48
2023-05-06T02:20:59.309Z,21.05
2023-05-06T02:23:26.205Z,21.45
2023-05-06T02:25:53.467Z,22.38
2023-05-06T02:28:20.339Z,21.38
2023-05-06T02:30:49.191Z,21.27
2023-05-06T02:33:15.952Z,23.65
2023-05-06T02:35:44.218Z,20.48
2023-05-06T02:38:11.174Z,21.25
2023-05-06T02:40:38.092Z,19.80
2023-05-06T02:43:05.244Z,20.75
2023-05-06T02:45:34.452Z,20.83
2023-05-06T02:48:01.517Z,21.55
2023-05-06T02:50:28.341Z,22.45
2023-05-06T02:52:55.118Z,22.50
2023-05-06T02:55:22.519Z,22.58
2023-05-06T02:57:49.290Z,22.50
2023-05-06T03:00:16.499Z,21.35
2023-05-06T03:02:43.380Z,21.60
2023-05-06T03:05:10.598Z,24.10
2023-05-06T03:07:38.641Z,20.30
2023-05-06T03:10:06.545Z,22.08
2023-05-06T03:12:36.276Z,22.98
2023-05-06T03:15:03.649Z,22.73
2023-05-06T03:17:30.567Z,24.33
2023-05-06T03:19:58.089Z,23.85
2023-05-06T03:22:24.925Z,21.85
2023-05-06T03:24:52.660Z,24.20
2023-05-06T03:27:19.844Z,22.67
2023-05-06T03:29:51.771Z,23.25
2023-05-06T03:32:21.154Z,23.00
2023-05-06T03:34:47.993Z,22.10
2023-05-06T03:37:18.994Z,22.60
2023-05-06T03:39:50.197Z,23.05
2023-05-06T03:42:19.340Z,23.67
2023-05-06T03:44:47.602Z,23.50
2023-05-06T03:47:16.330Z,22.52
2023-05-06T03:49:44.257Z,24.80
2023-05-06T03:52:11.952Z,21.63
2023-05-06T03:54:39.325Z,22.52
2023-05-06T03:57:07.829Z,21.58
2023-05-06T03:59:37.619Z,24.60
2023-05-06T04:02:06.591Z,23.38
2023-05-06T04:04:36.212Z,23.70
2023-05-06T04:07:03.925Z,23.70
2023-05-06T04:09:33.048Z,25.52
2023-05-06T04:12:03.528Z,23.40
2023-05-06T04:14:31.470Z,23.63
2023-05-06T04:16:59.117Z,24.35
2023-05-06T04:19:27.044Z,24.08
2023-05-06T04:21:53.984Z,21.75
2023-05-06T04:24:21.577Z,23.35
2023-05-06T04:26:48.480Z,22.38
2023-05-06T04:29:15.618Z,23.77
2023-05-06T04:31:54.977Z,23.13
2023-05-06T04:34:25.278Z,24.58
2023-05-06T04:36:54.314Z,25.27
2023-05-06T04:39:37.256Z,23.73
2023-05-06T04:42:04.692Z,23.40
2023-05-06T04:44:38.631Z,25.20
2023-05-06T04:47:09.122Z,24.60
2023-05-06T04:49:39.923Z,27.65
2023-05-06T04:52:08.141Z,26.50
2023-05-06T04:54:35.115Z,25.63
2023-05-06T04:57:03.383Z,26.95
2023-05-06T04:59:31.624Z,27.48
2023-05-06T05:02:00.601Z,28.48
2023-05-06T05:04:27.854Z,28.02
2023-05-06T05:06:54.982Z,25.50
2023-05-06T05:09:22.283Z,28.25
2023-05-06T05:11:49.786Z,27.63
2023-05-06T05:14:16.681Z,27.50
2023-05-06T05:16:43.822Z,29.20
2023-05-06T05:19:10.783Z,29.02
2023-05-06T05:21:37.880Z,28.75
2023-05-06T05:24:06.828Z,27.38
2023-05-06T05:26:34.463Z,26.25
2023-05-06T05:29:02.142Z,29.95
2023-05-06T05:31:31.467Z,29.40
2023-05-06T05:33:58.603Z,30.02
2023-05-06T05:36:27.867Z,30.25
2023-05-06T05:38:55.777Z,30.63
2023-05-06T05:41:26.996Z,29.88
2023-05-06T05:43:55.345Z,31.15
2023-05-06T05:46:22.542Z,29.35
2023-05-06T05:48:50.817Z,28.00
2023-05-06T05:51:20.349Z,29.38
2023-05-06T05:53:47.381Z,32.00
2023-05-06T05:56:14.870Z,29.73
2023-05-06T05:58:42.310Z,30.48
2023-05-06T06:01:09.345Z,30.85
2023-05-06T06:03:36.597Z,28.42
2023-05-06T06:06:05.603Z,28.60
2023-05-06T06:08:34.062Z,27.08
2023-05-06T06:11:04.063Z,29.58
2023-05-06T06:13:36.493Z,30.38
2023-05-06T06:16:04.005Z,31.38
2023-05-06T06:18:31.003Z,31.55
2023-05-06T06:20:58.106Z,37.97
2023-05-06T06:23:25.299Z,34.88
2023-05-06T06:25:52.249Z,38.38
2023-05-06T06:28:19.284Z,36.38
2023-05-06T06:30:46.524Z,38.17
2023-05-06T06:33:13.506Z,38.80
2023-05-06T06:35:40.579Z,36.95
2023-05-06T06:38:07.478Z,37.63
2023-05-06T06:40:34.484Z,36.17
2023-05-06T06:43:01.368Z,40.42
2023-05-06T06:45:51.353Z,39.67
2023-05-06T06:48:18.885Z,40.08
2023-05-06T06:50:45.889Z,34.40
2023-05-06T06:53:12.989Z,32.63
2023-05-06T06:55:43.859Z,30.52
2023-05-06T06:58:11.210Z,29.40
2023-05-06T07:00:38.221Z,26.13
2023-05-06T07:03:05.412Z,25.60
2023-05-06T07:05:32.271Z,22.02
2023-05-06T07:07:59.139Z,20.73
2023-05-06T07:10:26.509Z,19.33
2023-05-06T07:12:54.264Z,19.65
2023-05-06T07:15:21.652Z,19.58
2023-05-06T07:17:48.469Z,20.27
2023-05-06T07:20:16.374Z,19.55
2023-05-06T07:22:43.875Z,19.40
2023-05-06T07:25:11.235Z,18.02
2023-05-06T07:27:38.830Z,18.00
2023-05-06T07:30:06.402Z,17.73
2023-05-06T07:32:33.221Z,18.63
2023-05-06T07:35:00.245Z,19.05
2023-05-06T07:37:27.108Z,18.70
2023-05-06T07:39:54.054Z,17.65
2023-05-06T07:42:20.843Z,13.05
2023-05-06T07:44:47.778Z,11.98
2023-05-06T07:47:26.114Z,12.57
2023-05-06T07:49:53.139Z,13.77
2023-05-06T07:52:20.004Z,12.90
2023-05-06T07:54:46.809Z,13.60
2023-05-06T07:57:14.116Z,11.48
2023-05-06T07:59:40.909Z,7.15
2023-05-06T08:02:07.909Z,6.50
2023-05-06T08:04:34.972Z,8.07
2023-05-06T08:07:01.823Z,8.82
2023-05-06T08:09:28.779Z,10.13
2023-05-06T08:11:55.589Z,8.60
2023-05-06T08:14:22.461Z,9.20
2023-05-06T08:16:49.398Z,8.40
2023-05-06T08:19:16.355Z,5.40
2023-05-06T08:21:43.251Z,5.00
2023-05-06T08:24:11.315Z,8.02
2023-05-06T08:26:38.534Z,8.45
2023-05-06T08:29:06.925Z,9.60
2023-05-06T08:31:34.064Z,10.20
2023-05-06T08:34:01.025Z,10.35
2023-05-06T08:36:28.169Z,9.23
2023-05-06T08:38:55.010Z,11.18
2023-05-06T08:41:22.266Z,9.50
2023-05-06T08:43:50.743Z,10.50
2023-05-06T08:46:18.132Z,10.57
2023-05-06T08:48:45.540Z,9.40
2023-05-06T08:51:15.354Z,8.77
2023-05-06T08:53:49.350Z,7.72
2023-05-06T08:56:18.596Z,5.72
2023-05-06T08:58:48.728Z,5.43
2023-05-06T09:01:18.910Z,5.10
2023-05-06T09:03:47.407Z,4.40
2023-05-06T09:06:14.314Z,3.80
2023-05-06T09:08:41.135Z,5.57
2023-05-06T09:11:29.647Z,4.93
2023-05-06T09:14:13.973Z,6.18
2023-05-06T09:16:43.480Z,7.22
2023-05-06T09:19:10.692Z,7.03
2023-05-06T09:21:40.352Z,5.30
2023-05-06T09:24:09.112Z,5.47
2023-05-06T09:26:38.166Z,6.03
2023-05-06T09:29:05.914Z,5.05
2023-05-06T09:31:33.198Z,4.13
2023-05-06T09:34:01.355Z,4.75
2023-05-06T09:36:28.781Z,5.32
2023-05-06T09:38:57.185Z,5.35
2023-05-06T09:41:28.227Z,3.80
2023-05-06T09:43:56.376Z,4.50
2023-05-06T09:46:24.270Z,5.10
2023-05-06T09:48:52.770Z,7.53
2023-05-06T09:51:20.854Z,4.75
2023-05-06T09:53:48.989Z,4.03
2023-05-06T09:56:16.440Z,4.88
2023-05-06T09:58:43.783Z,5.07
2023-05-06T10:01:17.185Z,5.82
2023-05-06T10:03:53.731Z,5.55
2023-05-06T10:06:23.328Z,4.05
2023-05-06T10:08:50.421Z,5.15
2023-05-06T10:11:18.103Z,6.05
2023-05-06T10:13:45.778Z,6.95
2023-05-06T10:16:15.782Z,6.88
2023-05-06T10:18:43.582Z,6.40
2023-05-06T10:21:17.509Z,7.43
2023-05-06T10:23:45.586Z,8.63
2023-05-06T10:26:13.248Z,9.07
2023-05-06T10:28:43.722Z,7.55
2023-05-06T10:31:13.128Z,7.70
2023-05-06T10:33:46.548Z,7.00
2023-05-06T10:36:26.084Z,6.90
2023-05-06T10:38:57.609Z,5.63
2023-05-06T10:41:28.135Z,5.38
2023-05-06T10:43:59.679Z,5.65
2023-05-06T10:46:31.408Z,4.38
2023-05-06T10:49:14.099Z,4.05
2023-05-06T10:51:46.102Z,3.83
2023-05-06T10:54:19.214Z,4.55
2023-05-06T10:56:49.125Z,4.03
2023-05-06T10:59:21.241Z,4.05
2023-05-06T11:01:56.458Z,4.43
2023-05-06T11:04:23.601Z,5.55
2023-05-06T11:06:53.687Z,4.93
2023-05-06T11:09:21.444Z,6.82
2023-05-06T11:12:02.748Z,6.05
2023-05-06T11:14:32.652Z,4.28
2023-05-06T11:17:01.884Z,4.13
2023-05-06T11:19:31.280Z,3.75
2023-05-06T11:22:00.040Z,5.07
2023-05-06T11:24:27.930Z,5.20
2023-05-06T11:26:56.178Z,6.57
2023-05-06T11:29:24.040Z,4.47
2023-05-06T11:31:52.987Z,8.32
2023-05-06T11:34:30.792Z,6.03
2023-05-06T11:37:05.702Z,5.53
2023-05-06T11:39:39.883Z,6.00
2023-05-06T11:42:09.013Z,5.90
2023-05-06T11:44:39.909Z,7.75
2023-05-06T11:47:08.831Z,7.20
2023-05-06T11:49:44.962Z,5.38
2023-05-06T11:52:13.141Z,7.70
2023-05-06T11:54:41.750Z,5.15
2023-05-06T11:57:09.691Z,5.60
2023-05-06T11:59:38.596Z,6.82
2023-05-06T12:02:08.119Z,4.95
2023-05-06T12:04:43.229Z,5.93
2023-05-06T12:07:12.420Z,4.90
2023-05-06T12:09:44.114Z,4.53
2023-05-06T12:12:12.350Z,5.68
2023-05-06T12:14:39.842Z,5.55
2023-05-06T12:17:07.135Z,7.32
2023-05-06T12:19:34.205Z,5.43
2023-05-06T12:22:18.496Z,5.95
2023-05-06T12:24:46.426Z,8.38
2023-05-06T12:27:13.620Z,6.50
2023-05-06T12:29:40.689Z,7.78
2023-05-06T12:32:09.763Z,9.70
2023-05-06T12:34:40.914Z,9.50
2023-05-06T12:37:08.906Z,9.18
2023-05-06T12:39:37.571Z,9.57
2023-05-06T12:42:05.082Z,9.07
2023-05-06T12:44:35.236Z,8.05
2023-05-06T12:47:18.209Z,8.95
2023-05-06T12:49:47.869Z,9.18
2023-05-06T12:52:15.619Z,9.75
2023-05-06T12:54:42.767Z,9.35
2023-05-06T12:57:10.018Z,9.07
2023-05-06T12:59:37.692Z,9.75
2023-05-06T13:02:05.569Z,10.05
2023-05-06T13:04:32.424Z,9.88
2023-05-06T13:06:59.497Z,10.05
2023-05-06T13:09:26.334Z,9.93
2023-05-06T13:11:53.389Z,8.48
2023-05-06T13:14:20.171Z,8.82
2023-05-06T13:16:47.252Z,9.48
2023-05-06T13:19:31.037Z,8.98
2023-05-06T13:22:00.704Z,8.57
2023-05-06T13:24:28.159Z,8.57
2023-05-06T13:26:56.456Z,7.97
2023-05-06T13:29:23.884Z,6.65
2023-05-06T13:31:51.642Z,7.40
2023-05-06T13:34:18.945Z,7.57
2023-05-06T13:36:46.882Z,8.10
2023-05-06T13:39:14.004Z,8.13
2023-05-06T13:41:40.883Z,7.80
2023-05-06T13:44:08.054Z,8.48
2023-05-06T13:46:35.194Z,6.85
2023-05-06T13:49:02.198Z,7.05
2023-05-06T13:51:32.733Z,7.40
2023-05-06T13:53:59.602Z,8.40
2023-05-06T13:56:26.747Z,6.80
2023-05-06T13:58:53.578Z,5.53
2023-05-06T14:01:21.760Z,5.25
2023-05-06T14:03:48.900Z,4.13
2023-05-06T14:06:15.978Z,5.72
2023-05-06T14:08:43.161Z,4.72
2023-05-06T14:11:12.838Z,3.70
2023-05-06T14:13:40.517Z,4.38
2023-05-06T14:16:07.765Z,5.80
2023-05-06T14:18:34.976Z,5.15
2023-05-06T14:21:01.873Z,5.30
2023-05-06T14:23:29.092Z,4.50
2023-05-06T14:25:55.961Z,3.22
2023-05-06T14:28:22.820Z,3.65
2023-05-06T14:30:50.973Z,4.55
2023-05-06T14:33:17.876Z,3.20
2023-05-06T14:35:46.263Z,3.70
2023-05-06T14:38:13.307Z,3.85
2023-05-06T14:40:40.425Z,3.38
2023-05-06T14:43:08.119Z,3.70
2023-05-06T14:45:35.206Z,3.28
2023-05-06T14:48:02.594Z,3.20
2023-05-06T14:50:30.624Z,3.55
2023-05-06T14:52:57.509Z,3.65
2023-05-06T14:55:24.377Z,3.50
2023-05-06T14:57:51.384Z,3.88
2023-05-06T15:00:18.672Z,3.40
2023-05-06T15:02:45.523Z,4.07
2023-05-06T15:05:13.527Z,3.55
2023-05-06T15:07:40.615Z,3.90
2023-05-06T15:10:07.931Z,4.88
2023-05-06T15:12:36.488Z,5.20
2023-05-06T15:15:05.132Z,4.53
2023-05-06T15:17:32.766Z,5.10
2023-05-06T15:19:59.888Z,6.00
2023-05-06T15:22:26.879Z,6.72
2023-05-06T15:24:53.934Z,7.07
2023-05-06T15:27:20.812Z,6.85
2023-05-06T15:29:47.825Z,6.93
2023-05-06T15:32:15.100Z,9.10
2023-05-06T15:34:42.105Z,7.53
2023-05-06T15:37:10.412Z,9.13
2023-05-06T15:39:40.622Z,7.43
2023-05-06T15:42:07.531Z,7.35
2023-05-06T15:44:34.442Z,7.38
2023-05-06T15:47:01.235Z,6.57
2023-05-06T15:52:00.778Z,5.85
2023-05-06T15:54:28.867Z,5.85
2023-05-06T15:56:56.544Z,5.38
2023-05-06T15:59:23.732Z,7.63
2023-05-06T16:02:25.725Z,6.22
2023-05-06T16:04:38.563Z,7.95
2023-05-06T16:07:05.710Z,7.63
2023-05-06T16:09:32.568Z,7.22
2023-05-06T16:11:59.453Z,6.82
2023-05-06T16:14:26.490Z,8.10
2023-05-06T16:16:53.329Z,7.35
2023-05-06T16:19:20.509Z,8.05
2023-05-06T16:21:48.352Z,8.45
2023-05-06T16:24:16.062Z,8.18
2023-05-06T16:26:43.043Z,6.93
2023-05-06T16:29:10.254Z,8.13
2023-05-06T16:31:38.140Z,7.93
2023-05-06T16:34:05.108Z,8.23
2023-05-06T16:36:32.180Z,7.10
2023-05-06T16:38:58.953Z,7.53
2023-05-06T16:41:26.032Z,8.63
2023-05-06T16:43:52.903Z,8.75
2023-05-06T16:46:21.466Z,10.48
2023-05-06T16:48:51.583Z,14.57
2023-05-06T16:51:18.460Z,19.77
2023-05-06T16:53:45.713Z,21.80
2023-05-06T16:56:13.288Z,21.45
2023-05-06T16:58:40.196Z,25.55
2023-05-06T17:01:11.365Z,22.92
2023-05-06T17:03:38.655Z,22.80
2023-05-06T17:06:05.776Z,24.15
2023-05-06T17:08:36.395Z,21.88
2023-05-06T17:11:06.316Z,21.75
2023-05-06T17:13:33.643Z,21.73
2023-05-06T17:16:01.173Z,22.73
2023-05-06T17:18:28.130Z,18.58
2023-05-06T17:20:56.887Z,16.98
2023-05-06T17:23:24.601Z,17.27
2023-05-06T17:25:51.893Z,16.52
2023-05-06T17:28:19.197Z,17.52
2023-05-06T17:30:47.025Z,16.40
2023-05-06T17:33:14.225Z,16.73
2023-05-06T17:35:41.100Z,16.58
2023-05-06T17:38:08.355Z,16.92
2023-05-06T17:40:35.479Z,16.88
2023-05-06T17:43:02.484Z,16.15
2023-05-06T17:45:29.499Z,18.83
2023-05-06T17:47:56.883Z,16.63
2023-05-06T17:50:24.054Z,16.05
2023-05-06T17:52:52.975Z,17.13
2023-05-06T17:55:21.839Z,18.95
2023-05-06T17:57:49.490Z,16.13
2023-05-06T18:00:17.111Z,15.43
2023-05-06T18:02:45.108Z,17.63
2023-05-06T18:05:13.505Z,16.45
2023-05-06T18:07:41.128Z,15.27
2023-05-06T18:10:08.714Z,14.70
2023-05-06T18:12:35.934Z,14.65
2023-05-06T18:15:03.251Z,13.88
2023-05-06T18:17:30.482Z,13.35
2023-05-06T18:19:57.545Z,13.63
2023-05-06T18:22:24.929Z,12.43
2023-05-06T18:24:55.539Z,12.48
2023-05-06T18:27:23.092Z,14.23
2023-05-06T18:29:49.976Z,13.68
2023-05-06T18:32:17.486Z,12.93
2023-05-06T18:34:44.455Z,12.70
2023-05-06T18:37:11.406Z,12.27
2023-05-06T18:39:42.852Z,13.48
2023-05-06T18:42:10.227Z,13.40
2023-05-06T18:44:38.107Z,18.65
2023-05-06T18:47:05.447Z,14.88
2023-05-06T18:49:32.348Z,14.38
2023-05-06T18:51:59.668Z,15.60
2023-05-06T18:54:26.563Z,17.77
2023-05-06T18:56:54.869Z,17.30
2023-05-06T18:59:22.176Z,18.77
2023-05-06T19:01:49.234Z,24.88
2023-05-06T19:04:16.377Z,21.67
2023-05-06T19:06:43.593Z,19.92
2023-05-06T19:09:11.479Z,20.50
2023-05-06T19:11:39.184Z,19.45
2023-05-06T19:14:06.331Z,22.40
2023-05-06T19:16:33.738Z,22.23
2023-05-06T19:19:02.969Z,23.35
2023-05-06T19:21:30.413Z,23.13
2023-05-06T19:24:00.119Z,22.63
2023-05-06T19:26:28.180Z,18.63
2023-05-06T19:28:55.581Z,22.17
2023-05-06T19:31:23.220Z,19.85
2023-05-06T19:33:50.797Z,20.02
2023-05-06T19:36:18.335Z,21.92
2023-05-06T19:38:45.610Z,21.90
2023-05-06T19:41:13.520Z,25.92
2023-05-06T19:43:43.026Z,25.65
2023-05-06T19:46:11.712Z,25.33
2023-05-06T19:48:39.593Z,25.27
2023-05-06T19:51:07.362Z,25.50
2023-05-06T19:53:36.409Z,27.50
2023-05-06T19:56:11.382Z,25.73
2023-05-06T19:58:40.514Z,25.25
2023-05-06T20:01:09.794Z,26.88
2023-05-06T20:03:41.175Z,27.35
2023-05-06T20:06:10.233Z,26.10
2023-05-06T20:08:39.818Z,45.45
2023-05-06T20:11:08.649Z,26.05
2023-05-06T20:13:37.364Z,23.55
2023-05-06T20:16:06.631Z,25.95
2023-05-06T20:18:36.759Z,24.92
2023-05-06T20:21:06.442Z,24.42
2023-05-06T20:23:35.752Z,25.65
2023-05-06T20:26:05.033Z,25.23
2023-05-06T20:28:36.005Z,25.10
2023-05-06T20:31:05.500Z,26.33
2023-05-06T20:33:34.866Z,28.40
2023-05-06T20:36:05.112Z,27.40
2023-05-06T20:38:34.819Z,26.92
2023-05-06T20:41:04.639Z,27.98
2023-05-06T20:43:36.401Z,27.65
2023-05-06T20:46:06.645Z,27.35
2023-05-06T20:48:36.222Z,26.88
2023-05-06T20:51:07.429Z,27.42
2023-05-06T20:53:37.131Z,28.17
2023-05-06T20:56:10.834Z,24.75
2023-05-06T20:58:40.304Z,24.27
2023-05-06T21:01:09.133Z,29.15
2023-05-06T21:03:37.056Z,24.77
2023-05-06T21:06:04.438Z,25.90
2023-05-06T21:08:31.337Z,23.23
2023-05-06T21:10:58.208Z,24.38
2023-05-06T21:13:25.123Z,25.88
2023-05-06T21:15:52.207Z,26.65
2023-05-06T21:18:19.184Z,28.15
2023-05-06T21:20:46.435Z,26.23
2023-05-06T21:23:13.200Z,27.38
2023-05-06T21:25:40.165Z,29.27
2023-05-06T21:28:06.980Z,26.67
2023-05-06T21:30:37.277Z,32.58
2023-05-06T21:33:11.129Z,28.50
2023-05-06T21:35:38.176Z,27.20
2023-05-06T21:38:05.418Z,29.58
2023-05-06T21:40:32.234Z,26.17
2023-05-06T21:42:59.315Z,27.10
2023-05-06T21:45:26.585Z,26.90
2023-05-06T21:47:53.590Z,29.90
2023-05-06T21:50:20.702Z,29.48
2023-05-06T21:52:47.566Z,29.63
2023-05-06T21:55:14.518Z,26.27
2023-05-06T21:57:41.536Z,25.20
2023-05-06T22:00:12.380Z,25.67
2023-05-06T22:02:42.240Z,25.73
2023-05-06T22:05:09.865Z,25.35
2023-05-06T22:07:37.127Z,23.58
2023-05-06T22:10:04.993Z,23.20
2023-05-06T22:12:32.345Z,23.90
2023-05-06T22:14:59.433Z,23.15
2023-05-06T22:17:26.300Z,23.50
2023-05-06T22:19:54.877Z,22.45
2023-05-06T22:22:22.281Z,22.95
2023-05-06T22:24:49.512Z,24.13
2023-05-06T22:27:16.401Z,25.23
2023-05-06T22:29:43.311Z,22.50
2023-05-06T22:32:10.211Z,22.92
2023-05-06T22:34:37.178Z,23.70
2023-05-06T22:37:10.865Z,23.52
2023-05-06T22:39:37.800Z,22.35
2023-05-06T22:42:04.654Z,23.70
2023-05-06T22:44:31.685Z,24.45
2023-05-06T22:46:58.616Z,24.80
2023-05-06T22:49:28.999Z,25.23
2023-05-06T22:51:57.140Z,24.50
2023-05-06T22:54:24.444Z,24.48
2023-05-06T22:56:51.548Z,26.88
2023-05-06T22:59:18.416Z,27.27
2023-05-06T23:01:45.347Z,28.67
2023-05-06T23:04:13.381Z,28.75
2023-05-06T23:06:41.236Z,30.60
2023-05-06T23:09:08.512Z,29.85
2023-05-06T23:11:35.375Z,26.45
2023-05-06T23:14:02.375Z,29.05
2023-05-06T23:16:29.710Z,27.17
2023-05-06T23:18:57.156Z,25.00
2023-05-06T23:21:24.004Z,24.92
2023-05-06T23:23:50.847Z,26.77
2023-05-06T23:26:17.745Z,32.03
2023-05-06T23:28:44.545Z,24.33
2023-05-06T23:31:11.634Z,27.83
2023-05-06T23:33:38.457Z,28.83
2023-05-06T23:36:05.413Z,28.13
2023-05-06T23:38:32.396Z,26.95
2023-05-06T23:40:59.215Z,28.27
2023-05-06T23:43:26.418Z,28.30
2023-05-06T23:45:53.296Z,28.30
2023-05-06T23:48:20.126Z,27.90
2023-05-06T23:50:47.079Z,25.35
2023-05-06T23:53:13.992Z,26.95
2023-05-06T23:55:42.815Z,27.92
2023-05-06T23:58:09.947Z,27.70
